createdAt,value
2022-11-29T00:08:51.503Z,88
2022-11-29T00:18:56.555Z,90
2022-11-29T00:29:01.686Z,90
2022-11-29T00:39:07.254Z,92
2022-11-29T00:49:12.500Z,92
2022-11-29T00:59:17.875Z,90
2022-11-29T01:09:22.979Z,90
2022-11-29T01:19:28.254Z,90
2022-11-29T01:29:33.545Z,92
2022-11-29T01:39:38.854Z,90
2022-11-29T01:49:43.847Z,88
2022-11-29T01:59:49.082Z,88
2022-11-29T02:09:54.449Z,92
2022-11-29T02:19:59.559Z,88
2022-11-29T02:30:05.040Z,88
2022-11-29T02:40:10.144Z,90
2022-11-29T02:50:15.539Z,90
2022-11-29T03:00:20.897Z,90
2022-11-29T03:10:25.683Z,90
2022-11-29T03:20:31.202Z,90
2022-11-29T03:30:36.444Z,90
2022-11-29T03:40:41.909Z,90
2022-11-29T03:50:47.462Z,92
2022-11-29T04:00:52.594Z,92
2022-11-29T04:10:57.886Z,92
2022-11-29T04:21:03.161Z,88
2022-11-29T04:31:08.346Z,92
2022-11-29T04:41:13.553Z,90
2022-11-29T04:51:18.517Z,92
2022-11-29T05:01:23.891Z,92
2022-11-29T05:11:29.219Z,92
2022-11-29T05:21:34.484Z,90
2022-11-29T05:31:39.493Z,92
2022-11-29T05:41:45.282Z,96
2022-11-29T05:51:50.919Z,88
2022-11-29T06:01:56.099Z,92
2022-11-29T06:12:01.147Z,88
2022-11-29T06:22:06.024Z,90
2022-11-29T06:32:11.369Z,90
2022-11-29T06:42:16.728Z,88
2022-11-29T06:52:21.929Z,94
2022-11-29T07:02:27.234Z,92
2022-11-29T07:12:32.620Z,90
2022-11-29T07:22:38.234Z,88
2022-11-29T07:32:48.789Z,88
2022-11-29T07:42:54.066Z,88
2022-11-29T07:52:59.072Z,90
2022-11-29T08:03:04.368Z,90
2022-11-29T08:13:09.990Z,94
2022-11-29T08:23:15.162Z,90
2022-11-29T08:33:20.309Z,92
2022-11-29T08:43:25.770Z,84
2022-11-29T08:53:32.943Z,84
2022-11-29T09:03:38.271Z,86
2022-11-29T09:13:43.602Z,84
2022-11-29T09:23:49.064Z,82
2022-11-29T09:33:54.595Z,80
2022-11-29T09:43:59.781Z,84
2022-11-29T09:54:05.500Z,84
2022-11-29T10:04:10.975Z,84
2022-11-29T10:14:16.348Z,86
2022-11-29T10:24:21.619Z,82
2022-11-29T10:34:26.965Z,84
2022-11-29T10:44:32.969Z,76
2022-11-29T10:54:38.128Z,78
2022-11-29T11:04:43.606Z,78
2022-11-29T11:14:49.459Z,78
2022-11-29T11:24:54.897Z,80
2022-11-29T11:35:00.092Z,80
2022-11-29T11:45:05.328Z,76
2022-11-29T11:55:10.533Z,80
2022-11-29T12:05:15.627Z,78
2022-11-29T12:15:21.156Z,82
2022-11-29T12:25:26.509Z,86
2022-11-29T12:35:32.217Z,80
2022-11-29T12:47:13.189Z,84
2022-11-29T12:57:07.026Z,80
2022-11-29T13:07:12.503Z,86
2022-11-29T13:17:17.545Z,84
2022-11-29T13:27:23.020Z,82
2022-11-29T13:37:28.246Z,80
2022-11-29T13:47:33.458Z,82
2022-11-29T13:58:00.703Z,82
2022-11-29T14:07:49.187Z,82
2022-11-29T14:17:54.539Z,82
2022-11-29T14:27:59.927Z,80
2022-11-29T14:38:05.245Z,80
2022-11-29T14:48:10.760Z,80
2022-11-29T14:58:15.687Z,80
2022-11-29T15:08:21.063Z,80
2022-11-29T15:19:45.711Z,78
2022-11-29T15:29:50.335Z,74
2022-11-29T15:39:55.653Z,74
2022-11-29T15:50:00.836Z,80
2022-11-29T16:00:06.447Z,82
2022-11-29T16:10:11.748Z,76
2022-11-29T16:20:17.106Z,74
2022-11-29T16:30:22.512Z,80
2022-11-29T16:40:27.816Z,76
2022-11-29T16:50:34.516Z,72
2022-11-29T17:00:39.638Z,78
2022-11-29T17:10:45.336Z,80
2022-11-29T17:20:50.610Z,80
2022-11-29T17:30:55.754Z,82
2022-11-29T17:41:01.304Z,82
2022-11-29T17:51:17.229Z,78
2022-11-29T18:01:17.005Z,80
2022-11-29T18:11:22.513Z,80
2022-11-29T18:22:46.891Z,84
2022-11-29T18:32:51.419Z,80
2022-11-29T18:42:56.917Z,80
2022-11-29T18:53:02.079Z,80
2022-11-29T19:03:06.951Z,78
2022-11-29T19:13:12.052Z,80
2022-11-29T19:23:17.344Z,82
2022-11-29T19:33:22.029Z,82
2022-11-29T19:43:27.159Z,82
2022-11-29T19:53:32.218Z,82
2022-11-29T20:03:37.369Z,88
2022-11-29T20:13:42.270Z,82
2022-11-29T20:23:47.239Z,84
2022-11-29T20:33:52.415Z,84
2022-11-29T20:43:57.586Z,86
2022-11-29T20:54:02.566Z,84
2022-11-29T21:04:07.397Z,84
2022-11-29T21:14:12.499Z,84
2022-11-29T21:24:17.444Z,82
2022-11-29T21:34:22.328Z,84
2022-11-29T21:44:27.585Z,84
2022-11-29T21:54:33.084Z,84
2022-11-29T22:04:38.401Z,84
2022-11-29T22:14:44.078Z,84
2022-11-29T22:24:50.251Z,84
2022-11-29T22:34:55.294Z,82
2022-11-29T22:45:00.436Z,84
2022-11-29T22:55:05.964Z,80
2022-11-29T23:05:11.261Z,84
2022-11-29T23:15:16.465Z,84
2022-11-29T23:25:21.696Z,72
2022-11-29T23:35:26.786Z,88
2022-11-29T23:45:32.011Z,86
2022-11-29T23:55:37.510Z,88
